Time;durP1;ratioP1;P1;durP2;ratioP2;P2;SDS_P1;SDS_P2;PMS_P1;PMS_P2;Temp;Humidity;BMP_temperature;BMP_pressure;BME280_temperature;BME280_humidity;BME280_pressure;Samples;Min_cycle;Max_cycle;Signal;HPM_P1;HPM_P2
2022/06/05 00:02:26;;;;;;;7.83;7.20;;;;;;;;;;5076539;28;20739;-65
2022/06/05 00:04:58;;;;;;;8.73;7.37;;;;;;;;;;5076465;28;20404;-65
2022/06/05 00:07:39;;;;;;;8.23;7.57;;;;;;;;;;5076682;28;20400;-65
2022/06/05 00:10:09;;;;;;;10.00;8.03;;;;;;;;;;5075073;28;20428;-65
2022/06/05 00:12:40;;;;;;;11.47;7.90;;;;;;;;;;5076354;28;20515;-65
2022/06/05 00:15:06;;;;;;;9.27;8.57;;;;;;;;;;5076550;28;20426;-65
2022/06/05 00:17:32;;;;;;;9.97;9.00;;;;;;;;;;5058519;28;20420;-65
2022/06/05 00:19:58;;;;;;;8.47;7.77;;;;;;;;;;5076294;28;20404;-65
2022/06/05 00:22:24;;;;;;;8.03;7.53;;;;;;;;;;5076386;28;20755;-65
2022/06/05 00:24:50;;;;;;;9.70;8.43;;;;;;;;;;5076235;28;20463;-65
2022/06/05 00:27:16;;;;;;;11.47;8.20;;;;;;;;;;5076413;28;20905;-65
2022/06/05 00:29:48;;;;;;;10.50;9.80;;;;;;;;;;5075957;28;20475;-65
2022/06/05 00:32:24;;;;;;;10.10;8.77;;;;;;;;;;5058236;28;20990;-65
2022/06/05 00:34:50;;;;;;;19.80;8.23;;;;;;;;;;5076279;28;20431;-65
2022/06/05 00:37:24;;;;;;;9.10;8.27;;;;;;;;;;5076219;28;20867;-65
2022/06/05 00:39:50;;;;;;;9.10;8.20;;;;;;;;;;5075930;28;20453;-65
2022/06/05 00:42:18;;;;;;;10.03;8.70;;;;;;;;;;5076109;28;20405;-65
2022/06/05 00:44:48;;;;;;;9.70;8.87;;;;;;;;;;5075825;28;20830;-65
2022/06/05 00:47:16;;;;;;;8.67;8.00;;;;;;;;;;5075910;28;20410;-65
2022/06/05 00:49:45;;;;;;;8.80;8.10;;;;;;;;;;5075668;28;20742;-65
2022/06/05 00:52:12;;;;;;;9.97;9.27;;;;;;;;;;5075872;28;20476;-65
2022/06/05 00:54:38;;;;;;;10.40;9.70;;;;;;;;;;5075666;28;20406;-65
2022/06/05 00:57:06;;;;;;;11.83;9.50;;;;;;;;;;5075598;28;20921;-65
2022/06/05 00:59:32;;;;;;;10.83;10.03;;;;;;;;;;5075304;28;20484;-65
2022/06/05 01:01:58;;;;;;;11.93;10.97;;;;;;;;;;5075384;28;20440;-65
2022/06/05 01:04:24;;;;;;;11.13;10.17;;;;;;;;;;5075415;28;20397;-64
2022/06/05 01:06:52;;;;;;;11.37;10.00;;;;;;;;;;5075375;28;20455;-65
2022/06/05 01:09:18;;;;;;;11.03;10.00;;;;;;;;;;5074459;28;20416;-65
2022/06/05 01:12:00;;;;;;;12.00;10.77;;;;;;;;;;5075250;28;20449;-65
2022/06/05 01:14:34;;;;;;;10.27;9.50;;;;;;;;;;5075352;28;20487;-65
2022/06/05 01:17:05;;;;;;;10.47;9.73;;;;;;;;;;5075276;28;20543;-66
2022/06/05 01:19:33;;;;;;;10.30;9.47;;;;;;;;;;5075099;28;20784;-65
2022/06/05 01:22:18;;;;;;;10.90;10.00;;;;;;;;;;5075062;28;20412;-65
2022/06/05 01:24:50;;;;;;;11.17;9.80;;;;;;;;;;5075056;28;20405;-65
2022/06/05 01:27:19;;;;;;;9.53;9.07;;;;;;;;;;5075219;28;20476;-65
2022/06/05 01:29:51;;;;;;;9.07;8.37;;;;;;;;;;5056905;28;20891;-65
2022/06/05 01:32:24;;;;;;;8.80;8.30;;;;;;;;;;5074859;28;20812;-65
2022/06/05 01:34:56;;;;;;;9.67;9.17;;;;;;;;;;5074836;28;20739;-65
2022/06/05 01:37:27;;;;;;;9.43;8.80;;;;;;;;;;5074773;28;20395;-65
2022/06/05 01:39:59;;;;;;;9.30;8.80;;;;;;;;;;5074751;28;20397;-65
2022/06/05 01:42:33;;;;;;;10.33;9.37;;;;;;;;;;5074619;28;20402;-65
2022/06/05 01:45:02;;;;;;;12.20;9.67;;;;;;;;;;5074628;28;20411;-65
2022/06/05 01:47:34;;;;;;;9.30;8.60;;;;;;;;;;5074553;28;20886;-65
2022/06/05 01:50:15;;;;;;;9.80;9.10;;;;;;;;;;5074587;28;20413;-64
2022/06/05 01:52:48;;;;;;;10.80;9.90;;;;;;;;;;5074415;28;20490;-65
2022/06/05 01:55:19;;;;;;;9.67;9.07;;;;;;;;;;5074428;28;20756;-65
2022/06/05 01:57:45;;;;;;;9.33;8.50;;;;;;;;;;5074634;28;20431;-65
2022/06/05 02:00:14;;;;;;;10.10;9.20;;;;;;;;;;5074384;28;20389;-64
2022/06/05 02:02:42;;;;;;;9.67;9.10;;;;;;;;;;5074583;28;20405;-65
2022/06/05 02:05:11;;;;;;;9.20;8.50;;;;;;;;;;5074277;28;20401;-65
2022/06/05 02:07:44;;;;;;;9.00;8.20;;;;;;;;;;5074210;28;20395;-65
2022/06/05 02:10:13;;;;;;;8.70;8.03;;;;;;;;;;5074204;28;20752;-65
2022/06/05 02:12:39;;;;;;;9.80;8.87;;;;;;;;;;5074004;28;20475;-65
2022/06/05 02:15:06;;;;;;;8.40;7.90;;;;;;;;;;5074055;28;20451;-65
2022/06/05 02:17:33;;;;;;;8.80;8.30;;;;;;;;;;5074248;28;20469;-64
2022/06/05 02:19:59;;;;;;;8.80;8.13;;;;;;;;;;5073874;28;20413;-65
2022/06/05 02:22:28;;;;;;;7.97;7.27;;;;;;;;;;5073840;28;20448;-64
2022/06/05 02:24:54;;;;;;;7.87;7.40;;;;;;;;;;5073971;28;20915;-65
2022/06/05 02:27:24;;;;;;;9.23;8.40;;;;;;;;;;5073827;28;20877;-65
2022/06/05 02:29:50;;;;;;;9.40;8.57;;;;;;;;;;5073727;28;20462;-65
2022/06/05 02:32:19;;;;;;;9.80;8.90;;;;;;;;;;5073963;28;20877;-65
2022/06/05 02:34:45;;;;;;;10.00;9.00;;;;;;;;;;5073756;28;20390;-65
2022/06/05 02:37:32;;;;;;;10.20;9.50;;;;;;;;;;5073747;28;20771;-65
2022/06/05 02:40:09;;;;;;;10.40;9.70;;;;;;;;;;5063111;28;20515;-65
2022/06/05 02:42:53;;;;;;;9.37;8.57;;;;;;;;;;5055678;28;20845;-65
2022/06/05 02:45:35;;;;;;;11.07;9.27;;;;;;;;;;5073712;28;20501;-64
2022/06/05 02:48:19;;;;;;;10.93;10.13;;;;;;;;;;5073846;28;20427;-65
2022/06/05 02:50:44;;;;;;;11.37;10.40;;;;;;;;;;5073567;28;20498;-65
2022/06/05 02:53:11;;;;;;;10.67;9.87;;;;;;;;;;5073423;28;20571;-65
2022/06/05 02:55:38;;;;;;;10.70;10.00;;;;;;;;;;5073749;28;20399;-65
2022/06/05 02:58:04;;;;;;;10.93;10.03;;;;;;;;;;5073792;28;20410;-65
2022/06/05 03:00:32;;;;;;;10.30;9.50;;;;;;;;;;5073978;28;20425;-65
2022/06/05 03:05:43;;;;;;;10.40;9.70;;;;;;;;;;5073720;28;20746;-65
2022/06/05 03:08:10;;;;;;;11.90;10.17;;;;;;;;;;5073477;28;20403;-65
2022/06/05 03:10:36;;;;;;;11.60;10.43;;;;;;;;;;5073349;28;20403;-65
2022/06/05 03:13:02;;;;;;;10.60;9.87;;;;;;;;;;5073320;28;20525;-65
2022/06/05 03:15:29;;;;;;;12.10;11.20;;;;;;;;;;5073638;28;20396;-64
2022/06/05 03:17:55;;;;;;;13.50;10.30;;;;;;;;;;5073287;28;20411;-64
2022/06/05 03:20:21;;;;;;;11.17;9.90;;;;;;;;;;5055317;28;20461;-64
2022/06/05 03:22:47;;;;;;;11.60;10.83;;;;;;;;;;5073246;28;20415;-65
2022/06/05 03:25:17;;;;;;;11.57;10.37;;;;;;;;;;5073269;28;20408;-65
2022/06/05 03:27:43;;;;;;;11.00;9.80;;;;;;;;;;5073204;28;20423;-65
2022/06/05 03:30:09;;;;;;;11.30;10.43;;;;;;;;;;5072041;28;20898;-65
2022/06/05 03:32:35;;;;;;;11.63;10.70;;;;;;;;;;5056352;28;20460;-64
2022/06/05 03:35:01;;;;;;;11.43;10.30;;;;;;;;;;5077168;28;20459;-64
2022/06/05 03:37:27;;;;;;;13.17;11.93;;;;;;;;;;5077042;28;20430;-64
2022/06/05 03:39:54;;;;;;;14.00;12.60;;;;;;;;;;5077103;28;20386;-64
2022/06/05 03:42:20;;;;;;;13.37;12.37;;;;;;;;;;5077249;28;20403;-65
2022/06/05 03:44:46;;;;;;;14.13;12.77;;;;;;;;;;5076863;28;20396;-65
2022/06/05 03:47:12;;;;;;;16.30;14.97;;;;;;;;;;5077147;28;20399;-64
2022/06/05 03:49:39;;;;;;;14.90;13.70;;;;;;;;;;5076852;28;20388;-64
2022/06/05 03:52:05;;;;;;;15.40;13.93;;;;;;;;;;5076747;28;20473;-65
2022/06/05 03:54:33;;;;;;;17.90;13.93;;;;;;;;;;5076807;28;20400;-65
2022/06/05 03:56:59;;;;;;;14.53;13.10;;;;;;;;;;5076673;28;20403;-65
2022/06/05 03:59:25;;;;;;;15.73;14.03;;;;;;;;;;5076683;28;20483;-65
2022/06/05 04:01:51;;;;;;;14.13;12.87;;;;;;;;;;5076569;28;20404;-66
2022/06/05 04:04:17;;;;;;;17.87;13.40;;;;;;;;;;5076575;28;20389;-66
2022/06/05 04:06:43;;;;;;;13.40;12.53;;;;;;;;;;5076623;28;20434;-65
2022/06/05 04:09:09;;;;;;;14.60;13.30;;;;;;;;;;5076481;28;20390;-65
2022/06/05 04:11:36;;;;;;;16.67;15.20;;;;;;;;;;5076335;28;20831;-65
2022/06/05 04:14:03;;;;;;;16.50;15.10;;;;;;;;;;5076372;28;20400;-65
2022/06/05 04:16:30;;;;;;;15.60;14.17;;;;;;;;;;5076304;28;20894;-66
2022/06/05 04:18:57;;;;;;;17.03;15.60;;;;;;;;;;5076267;28;20405;-65
2022/06/05 04:21:28;;;;;;;17.40;15.67;;;;;;;;;;5076296;28;20493;-66
2022/06/05 04:23:55;;;;;;;18.17;16.23;;;;;;;;;;5058292;28;20415;-66
2022/06/05 04:26:22;;;;;;;18.10;16.60;;;;;;;;;;5076188;28;20489;-65
2022/06/05 04:28:49;;;;;;;17.00;15.50;;;;;;;;;;5076099;28;20462;-65
2022/06/05 04:31:18;;;;;;;17.87;16.23;;;;;;;;;;5076142;28;20406;-65
2022/06/05 04:33:44;;;;;;;17.63;16.00;;;;;;;;;;5075935;28;20474;-65
2022/06/05 04:36:09;;;;;;;17.97;16.37;;;;;;;;;;5076077;28;20401;-65
2022/06/05 04:38:35;;;;;;;18.20;16.63;;;;;;;;;;5075983;28;20410;-65
2022/06/05 04:41:01;;;;;;;18.50;15.50;;;;;;;;;;5075887;28;20401;-66
2022/06/05 04:43:27;;;;;;;17.47;15.93;;;;;;;;;;5074938;28;20879;-65
2022/06/05 04:45:53;;;;;;;16.70;15.33;;;;;;;;;;5075705;28;20806;-65
2022/06/05 04:48:19;;;;;;;18.40;16.77;;;;;;;;;;5075795;28;20395;-66
2022/06/05 04:50:45;;;;;;;15.77;14.33;;;;;;;;;;5075738;28;20461;-65
2022/06/05 04:53:11;;;;;;;17.47;15.60;;;;;;;;;;5075649;28;20458;-65
2022/06/05 04:55:38;;;;;;;17.10;15.50;;;;;;;;;;5075690;28;20875;-66
2022/06/05 04:58:04;;;;;;;17.30;15.80;;;;;;;;;;5075568;28;20904;-66
2022/06/05 05:00:30;;;;;;;18.50;16.70;;;;;;;;;;5075573;28;20874;-66
2022/06/05 05:02:56;;;;;;;17.73;16.03;;;;;;;;;;5075457;28;20414;-65
2022/06/05 05:05:22;;;;;;;18.10;16.40;;;;;;;;;;5057523;28;20994;-65
2022/06/05 05:07:48;;;;;;;17.20;15.60;;;;;;;;;;5075469;28;20407;-66
2022/06/05 05:10:14;;;;;;;17.23;15.83;;;;;;;;;;5075610;28;20772;-65
2022/06/05 05:12:40;;;;;;;18.03;16.60;;;;;;;;;;5075213;28;20896;-66
2022/06/05 05:15:07;;;;;;;18.70;17.10;;;;;;;;;;5057361;28;20430;-65
2022/06/05 05:17:33;;;;;;;19.97;17.90;;;;;;;;;;5075219;28;20511;-64
2022/06/05 05:19:59;;;;;;;19.50;17.80;;;;;;;;;;5075398;28;20936;-65
2022/06/05 05:22:25;;;;;;;19.87;18.03;;;;;;;;;;5075210;28;20406;-65
2022/06/05 05:24:51;;;;;;;18.33;16.73;;;;;;;;;;5075065;28;20406;-65
2022/06/05 05:27:17;;;;;;;19.43;17.77;;;;;;;;;;5057314;28;20395;-65
2022/06/05 05:29:43;;;;;;;20.73;18.20;;;;;;;;;;5074860;28;20463;-66
2022/06/05 05:32:10;;;;;;;18.33;16.53;;;;;;;;;;5074930;28;20964;-65
2022/06/05 05:34:36;;;;;;;19.83;17.60;;;;;;;;;;5075088;28;20870;-65
2022/06/05 05:37:02;;;;;;;18.10;16.60;;;;;;;;;;5075092;28;20410;-65
2022/06/05 05:42:14;;;;;;;18.67;17.07;;;;;;;;;;5074948;28;20394;-65
2022/06/05 05:44:47;;;;;;;18.70;17.00;;;;;;;;;;5074580;28;20872;-65
2022/06/05 05:47:14;;;;;;;20.20;18.33;;;;;;;;;;5074619;28;20395;-65
2022/06/05 05:49:40;;;;;;;19.60;17.93;;;;;;;;;;5074763;28;20399;-65
2022/06/05 05:52:07;;;;;;;18.93;17.23;;;;;;;;;;5074380;28;20552;-65
2022/06/05 05:54:36;;;;;;;19.33;17.13;;;;;;;;;;5074248;28;20484;-65
2022/06/05 05:57:02;;;;;;;19.77;17.87;;;;;;;;;;5074316;28;20399;-65
2022/06/05 05:59:28;;;;;;;21.40;19.20;;;;;;;;;;5074439;28;20398;-65
2022/06/05 06:01:54;;;;;;;20.97;18.93;;;;;;;;;;5074233;28;20404;-65
2022/06/05 06:04:20;;;;;;;20.87;18.50;;;;;;;;;;5074604;28;20494;-65
2022/06/05 06:06:49;;;;;;;21.50;19.50;;;;;;;;;;5074547;28;20492;-65
2022/06/05 06:09:15;;;;;;;21.03;19.13;;;;;;;;;;5074205;28;20407;-65
2022/06/05 06:11:41;;;;;;;20.70;18.77;;;;;;;;;;5074151;28;20826;-65
2022/06/05 06:14:07;;;;;;;20.17;18.27;;;;;;;;;;5074364;28;20411;-65
2022/06/05 06:16:33;;;;;;;20.60;18.40;;;;;;;;;;5073998;28;20747;-65
2022/06/05 06:18:59;;;;;;;22.97;19.93;;;;;;;;;;5074280;28;20412;-65
2022/06/05 06:21:25;;;;;;;19.83;18.07;;;;;;;;;;5073959;28;20400;-66
2022/06/05 06:23:52;;;;;;;20.83;18.80;;;;;;;;;;5074000;28;20923;-65
2022/06/05 06:26:18;;;;;;;21.87;19.60;;;;;;;;;;5073934;28;20433;-65
2022/06/05 06:28:44;;;;;;;21.77;19.97;;;;;;;;;;5073632;28;20930;-65
2022/06/05 06:31:11;;;;;;;22.03;18.77;;;;;;;;;;5073907;28;20769;-65
2022/06/05 06:33:38;;;;;;;20.80;19.00;;;;;;;;;;5073738;28;21027;-65
2022/06/05 06:36:06;;;;;;;23.90;19.30;;;;;;;;;;5074013;28;20878;-65
2022/06/05 06:38:33;;;;;;;22.20;19.83;;;;;;;;;;5073769;28;20399;-65
2022/06/05 06:41:07;;;;;;;20.70;18.80;;;;;;;;;;5073740;28;20849;-64
2022/06/05 06:43:33;;;;;;;28.17;20.90;;;;;;;;;;5073718;28;20963;-64
2022/06/05 06:46:00;;;;;;;22.30;20.30;;;;;;;;;;5073552;28;20420;-65
2022/06/05 06:48:26;;;;;;;22.50;20.10;;;;;;;;;;5055650;28;20818;-65
2022/06/05 06:50:53;;;;;;;20.70;18.97;;;;;;;;;;5073575;28;20438;-65
2022/06/05 06:53:19;;;;;;;22.07;20.10;;;;;;;;;;5055496;28;20893;-65
2022/06/05 06:55:45;;;;;;;22.77;20.10;;;;;;;;;;5073464;28;20394;-65
2022/06/05 06:58:11;;;;;;;26.57;19.53;;;;;;;;;;5073391;28;20402;-64
2022/06/05 07:00:37;;;;;;;20.97;19.23;;;;;;;;;;5073464;28;20490;-64
2022/06/05 07:03:02;;;;;;;21.53;19.37;;;;;;;;;;5073366;28;20490;-64
2022/06/05 07:05:28;;;;;;;22.00;19.80;;;;;;;;;;5073424;28;20392;-64
2022/06/05 07:07:54;;;;;;;21.43;19.53;;;;;;;;;;5072634;28;20408;-65
2022/06/05 07:10:20;;;;;;;18.27;16.53;;;;;;;;;;5073417;28;20906;-65
2022/06/05 07:12:47;;;;;;;18.97;17.37;;;;;;;;;;5073179;28;20829;-65
2022/06/05 07:15:14;;;;;;;19.90;18.20;;;;;;;;;;5073299;28;20815;-65
2022/06/05 07:17:39;;;;;;;20.93;19.07;;;;;;;;;;5073265;28;20827;-65
2022/06/05 07:20:06;;;;;;;18.40;16.77;;;;;;;;;;5073415;28;20397;-65
2022/06/05 07:22:33;;;;;;;18.60;16.80;;;;;;;;;;5055265;28;20757;-65
2022/06/05 07:24:59;;;;;;;17.67;16.07;;;;;;;;;;5073213;28;20918;-65
2022/06/05 07:27:25;;;;;;;18.10;16.43;;;;;;;;;;5073240;28;20482;-65
2022/06/05 07:29:51;;;;;;;15.87;14.27;;;;;;;;;;5073128;28;20835;-65
2022/06/05 07:32:18;;;;;;;17.13;15.43;;;;;;;;;;5073142;28;20450;-65
2022/06/05 07:34:44;;;;;;;17.07;15.23;;;;;;;;;;5073150;28;20412;-65
2022/06/05 07:37:10;;;;;;;16.57;15.23;;;;;;;;;;5073151;28;20403;-65
2022/06/05 07:39:36;;;;;;;16.60;15.23;;;;;;;;;;5073304;28;20408;-66
2022/06/05 07:42:02;;;;;;;14.77;13.53;;;;;;;;;;5073271;28;20404;-65
2022/06/05 07:44:28;;;;;;;15.50;14.30;;;;;;;;;;5073103;28;20532;-65
2022/06/05 07:46:54;;;;;;;16.47;14.83;;;;;;;;;;5072983;28;20451;-65
2022/06/05 07:49:20;;;;;;;16.57;15.10;;;;;;;;;;5072933;28;20792;-66
2022/06/05 07:54:41;;;;;;;15.73;14.23;;;;;;;;;;5018437;28;20470;-65
2022/06/05 07:57:09;;;;;;;15.70;14.50;;;;;;;;;;5073163;28;20415;-65
2022/06/05 07:59:36;;;;;;;17.23;15.50;;;;;;;;;;5054923;28;20918;-66
2022/06/05 08:02:04;;;;;;;15.60;14.30;;;;;;;;;;5072849;28;20420;-65
2022/06/05 08:04:31;;;;;;;16.30;14.77;;;;;;;;;;5072805;28;20499;-66
2022/06/05 08:06:58;;;;;;;17.10;15.50;;;;;;;;;;5072803;28;20409;-65
2022/06/05 08:09:24;;;;;;;17.17;15.27;;;;;;;;;;5072826;28;20412;-65
2022/06/05 08:11:50;;;;;;;16.83;15.37;;;;;;;;;;5072717;28;20471;-65
2022/06/05 08:14:16;;;;;;;15.47;14.27;;;;;;;;;;5072741;28;20416;-65
2022/06/05 08:16:43;;;;;;;16.10;14.80;;;;;;;;;;5072737;28;20409;-65
2022/06/05 08:19:13;;;;;;;17.30;15.60;;;;;;;;;;5074943;28;20826;-64
2022/06/05 08:21:40;;;;;;;15.70;14.23;;;;;;;;;;5076301;28;20404;-65
2022/06/05 08:24:06;;;;;;;15.67;14.23;;;;;;;;;;5076504;28;20743;-65
2022/06/05 08:26:32;;;;;;;16.97;15.40;;;;;;;;;;5076165;28;20408;-65
2022/06/05 08:28:58;;;;;;;16.53;14.93;;;;;;;;;;5076107;28;20475;-64
2022/06/05 08:31:24;;;;;;;15.70;13.93;;;;;;;;;;5076086;28;20773;-66
2022/06/05 08:33:50;;;;;;;12.97;11.97;;;;;;;;;;5076054;28;20469;-65
2022/06/05 08:36:16;;;;;;;14.17;12.93;;;;;;;;;;5075924;28;20875;-64
2022/06/05 08:41:30;;;;;;;11.43;10.70;;;;;;;;;;5075778;28;20477;-66
2022/06/05 08:43:56;;;;;;;12.50;10.00;;;;;;;;;;5075745;28;20404;-65
2022/06/05 08:46:27;;;;;;;11.40;9.10;;;;;;;;;;5075796;28;20807;-64
2022/06/05 08:49:04;;;;;;;14.03;9.97;;;;;;;;;;5075532;28;20460;-65
2022/06/05 08:51:30;;;;;;;9.90;8.80;;;;;;;;;;5075672;28;20405;-65
2022/06/05 08:53:58;;;;;;;12.90;9.40;;;;;;;;;;5075496;28;20841;-65
2022/06/05 08:56:53;;;;;;;10.77;9.67;;;;;;;;;;5075819;28;20396;-66
2022/06/05 08:59:29;;;;;;;12.27;11.20;;;;;;;;;;5062940;28;20465;-65
2022/06/05 09:01:58;;;;;;;12.13;11.00;;;;;;;;;;5075491;28;20424;-66
2022/06/05 09:04:24;;;;;;;12.00;10.83;;;;;;;;;;5075476;28;20453;-66
2022/06/05 09:06:53;;;;;;;10.33;9.17;;;;;;;;;;5075447;28;20409;-66
2022/06/05 09:09:21;;;;;;;9.20;8.50;;;;;;;;;;5075371;28;20452;-66
2022/06/05 09:12:06;;;;;;;8.33;7.50;;;;;;;;;;5075109;28;20432;-66
2022/06/05 09:14:34;;;;;;;10.50;8.70;;;;;;;;;;5075371;28;20413;-65
2022/06/05 09:17:04;;;;;;;9.87;8.97;;;;;;;;;;5075334;28;20487;-65
2022/06/05 09:19:31;;;;;;;9.47;8.60;;;;;;;;;;5075160;28;20403;-66
2022/06/05 09:22:02;;;;;;;18.03;8.90;;;;;;;;;;5075211;28;20487;-66
2022/06/05 09:24:33;;;;;;;10.90;8.50;;;;;;;;;;5074997;28;20454;-66
2022/06/05 09:27:11;;;;;;;8.43;7.83;;;;;;;;;;5075097;28;20806;-66
2022/06/05 09:29:47;;;;;;;9.43;8.40;;;;;;;;;;5074275;28;20467;-66
2022/06/05 09:32:22;;;;;;;8.63;8.00;;;;;;;;;;5074938;28;20840;-66
2022/06/05 09:35:02;;;;;;;14.97;7.87;;;;;;;;;;5074945;28;20402;-66
2022/06/05 09:37:31;;;;;;;8.83;7.93;;;;;;;;;;5074833;28;20390;-66
2022/06/05 09:40:16;;;;;;;8.60;7.47;;;;;;;;;;5074711;28;20440;-65
2022/06/05 09:42:42;;;;;;;7.73;7.20;;;;;;;;;;5074622;28;20941;-65
2022/06/05 09:45:24;;;;;;;8.43;7.73;;;;;;;;;;5074465;28;20404;-65
2022/06/05 09:48:12;;;;;;;7.70;7.03;;;;;;;;;;5074613;28;20172;-65
2022/06/05 09:50:39;;;;;;;8.50;7.90;;;;;;;;;;5044443;28;20481;-66
2022/06/05 09:53:05;;;;;;;7.87;7.20;;;;;;;;;;5074453;28;20931;-66
2022/06/05 09:55:41;;;;;;;6.03;5.27;;;;;;;;;;5074446;28;20391;-66
2022/06/05 09:58:25;;;;;;;6.50;4.23;;;;;;;;;;5074279;28;20394;-67
2022/06/05 10:00:55;;;;;;;3.40;3.30;;;;;;;;;;5074485;28;20769;-67
2022/06/05 10:03:42;;;;;;;3.20;3.03;;;;;;;;;;5074295;28;20401;-66
2022/06/05 10:06:21;;;;;;;2.40;2.30;;;;;;;;;;5074499;28;20402;-66
2022/06/05 10:08:49;;;;;;;3.37;2.70;;;;;;;;;;5074464;28;20484;-66
2022/06/05 10:11:34;;;;;;;2.50;2.43;;;;;;;;;;5074522;28;20726;-66
2022/06/05 10:14:00;;;;;;;3.23;3.10;;;;;;;;;;5074248;28;20803;-65
2022/06/05 10:16:31;;;;;;;3.43;3.33;;;;;;;;;;5074433;28;20429;-66
2022/06/05 10:19:13;;;;;;;3.93;3.63;;;;;;;;;;5074299;28;20409;-66
2022/06/05 10:21:52;;;;;;;3.63;2.13;;;;;;;;;;5074148;28;20415;-65
2022/06/05 10:24:18;;;;;;;2.20;1.77;;;;;;;;;;5056327;28;20991;-64
2022/06/05 10:26:48;;;;;;;2.73;2.10;;;;;;;;;;5074190;28;20495;-65
2022/06/05 10:29:21;;;;;;;2.73;2.07;;;;;;;;;;5073870;28;20829;-66
2022/06/05 10:32:02;;;;;;;3.23;1.90;;;;;;;;;;5073658;28;20412;-64
2022/06/05 10:34:35;;;;;;;1.40;1.40;;;;;;;;;;5073868;28;20510;-65
2022/06/05 10:37:14;;;;;;;2.80;1.03;;;;;;;;;;5073793;28;20416;-64
2022/06/05 10:39:51;;;;;;;2.73;1.03;;;;;;;;;;5073644;28;20960;-65
2022/06/05 10:42:28;;;;;;;2.23;1.13;;;;;;;;;;5055736;28;20430;-66
2022/06/05 10:44:59;;;;;;;1.73;1.33;;;;;;;;;;5073666;28;20758;-65
2022/06/05 10:47:37;;;;;;;0.77;0.77;;;;;;;;;;5073704;28;20409;-66
2022/06/05 10:50:03;;;;;;;4.00;0.70;;;;;;;;;;5073540;28;20966;-66
2022/06/05 10:52:32;;;;;;;0.80;0.70;;;;;;;;;;5073557;28;20453;-65
2022/06/05 10:55:16;;;;;;;2.70;0.90;;;;;;;;;;5073523;28;20438;-66
2022/06/05 10:57:47;;;;;;;1.13;1.00;;;;;;;;;;5073522;28;20393;-66
2022/06/05 11:00:16;;;;;;;0.97;0.97;;;;;;;;;;5073403;28;20414;-67
2022/06/05 11:02:47;;;;;;;1.60;0.80;;;;;;;;;;5073445;28;20398;-67
2022/06/05 11:05:32;;;;;;;4.43;4.03;;;;;;;;;;5073537;28;20414;-66
2022/06/05 11:08:04;;;;;;;1.97;0.80;;;;;;;;;;5055342;28;20429;-67
2022/06/05 11:13:40;;;;;;;3.33;1.03;;;;;;;;;;5073255;28;20464;-67
2022/06/05 11:16:09;;;;;;;2.10;1.00;;;;;;;;;;5073508;28;20401;-66
2022/06/05 11:18:49;;;;;;;2.40;0.83;;;;;;;;;;5073292;28;20405;-68
2022/06/05 11:21:20;;;;;;;0.80;0.80;;;;;;;;;;5073162;28;20415;-67
2022/06/05 11:23:48;;;;;;;0.80;0.80;;;;;;;;;;5073212;28;20404;-66
2022/06/05 11:26:24;;;;;;;4.23;1.40;;;;;;;;;;5073272;28;20410;-66
2022/06/05 11:29:01;;;;;;;1.00;0.70;;;;;;;;;;5073024;28;20448;-66
2022/06/05 11:31:27;;;;;;;2.90;0.97;;;;;;;;;;5073247;28;20774;-65
2022/06/05 11:33:55;;;;;;;1.47;1.20;;;;;;;;;;5073087;28;20463;-67
2022/06/05 11:36:28;;;;;;;1.90;1.13;;;;;;;;;;5073183;28;20414;-67
2022/06/05 11:39:13;;;;;;;4.30;1.73;;;;;;;;;;5073037;28;20420;-67
2022/06/05 11:41:44;;;;;;;1.37;1.27;;;;;;;;;;5072955;28;20483;-67
2022/06/05 11:44:29;;;;;;;1.30;1.20;;;;;;;;;;5072992;28;20407;-67
2022/06/05 11:46:58;;;;;;;2.30;1.10;;;;;;;;;;5072924;28;20923;-67
2022/06/05 11:49:35;;;;;;;2.40;1.40;;;;;;;;;;5073226;28;20400;-66
2022/06/05 11:52:04;;;;;;;1.33;1.10;;;;;;;;;;5072899;28;20467;-67
2022/06/05 11:54:44;;;;;;;1.10;1.10;;;;;;;;;;5075842;28;20507;-66
2022/06/05 11:57:16;;;;;;;0.90;0.90;;;;;;;;;;5076841;28;20395;-66
2022/06/05 11:59:49;;;;;;;1.20;1.10;;;;;;;;;;5076762;28;20396;-67
2022/06/05 12:02:36;;;;;;;1.00;1.00;;;;;;;;;;5076920;28;20476;-66
2022/06/05 12:05:10;;;;;;;1.70;1.60;;;;;;;;;;5066055;28;20418;-66
2022/06/05 12:07:37;;;;;;;1.20;1.20;;;;;;;;;;5076611;28;20408;-66
2022/06/05 12:10:10;;;;;;;1.60;1.13;;;;;;;;;;5076541;28;20424;-67
2022/06/05 12:12:38;;;;;;;1.33;1.20;;;;;;;;;;5076361;28;20970;-67
2022/06/05 12:15:33;;;;;;;0.83;0.83;;;;;;;;;;5076383;28;20431;-67
2022/06/05 12:18:01;;;;;;;3.90;2.80;;;;;;;;;;5053898;28;20436;-66
2022/06/05 12:20:49;;;;;;;1.27;1.27;;;;;;;;;;5076367;28;20415;-67
2022/06/05 12:23:29;;;;;;;1.73;1.10;;;;;;;;;;5076662;28;20407;-67
2022/06/05 12:26:13;;;;;;;2.60;1.23;;;;;;;;;;5058539;28;20809;-66
2022/06/05 12:28:41;;;;;;;1.00;1.00;;;;;;;;;;5076130;28;20411;-66
2022/06/05 12:31:23;;;;;;;2.40;1.17;;;;;;;;;;5076172;28;20407;-66
2022/06/05 12:33:52;;;;;;;0.70;0.70;;;;;;;;;;5076031;28;20465;-67
2022/06/05 12:36:34;;;;;;;2.40;1.03;;;;;;;;;;5076086;28;20758;-67
2022/06/05 12:39:08;;;;;;;1.27;1.10;;;;;;;;;;5075934;28;20732;-67
2022/06/05 12:41:37;;;;;;;1.73;1.73;;;;;;;;;;5075884;28;20428;-67
2022/06/05 12:44:22;;;;;;;1.23;1.00;;;;;;;;;;5076163;28;20408;-68
2022/06/05 12:46:53;;;;;;;1.70;1.03;;;;;;;;;;5076146;28;20483;-65
2022/06/05 12:49:25;;;;;;;1.90;1.00;;;;;;;;;;5075797;28;20396;-66
2022/06/05 12:52:01;;;;;;;0.97;0.97;;;;;;;;;;5075920;28;20480;-66
2022/06/05 12:54:44;;;;;;;1.07;1.00;;;;;;;;;;5075778;28;20757;-66
2022/06/05 12:57:14;;;;;;;5.27;1.10;;;;;;;;;;5075720;28;20493;-66
2022/06/05 12:59:45;;;;;;;1.00;1.00;;;;;;;;;;5075555;28;20760;-66
2022/06/05 13:02:11;;;;;;;0.90;0.90;;;;;;;;;;5075602;28;20405;-66
2022/06/05 13:04:42;;;;;;;1.10;1.10;;;;;;;;;;5074483;28;20412;-65
2022/06/05 13:07:11;;;;;;;0.90;0.90;;;;;;;;;;5075422;28;20172;-66
2022/06/05 13:09:37;;;;;;;1.50;1.37;;;;;;;;;;5075406;28;20414;-67
2022/06/05 13:12:07;;;;;;;0.87;0.87;;;;;;;;;;5075293;28;20406;-67
2022/06/05 13:14:52;;;;;;;0.87;0.87;;;;;;;;;;5075365;28;21014;-66
2022/06/05 13:17:33;;;;;;;1.20;1.10;;;;;;;;;;5075437;28;20438;-67
2022/06/05 13:20:03;;;;;;;0.80;0.80;;;;;;;;;;5075186;28;20484;-67
2022/06/05 13:22:33;;;;;;;0.90;0.90;;;;;;;;;;5075202;28;20787;-67
2022/06/05 13:25:03;;;;;;;0.90;0.90;;;;;;;;;;5075041;28;20909;-66
2022/06/05 13:27:32;;;;;;;1.27;1.13;;;;;;;;;;5075006;28;20761;-68
2022/06/05 13:30:10;;;;;;;1.10;1.07;;;;;;;;;;5074864;28;20473;-67
2022/06/05 13:32:36;;;;;;;4.50;0.80;;;;;;;;;;5074872;28;21009;-67
2022/06/05 13:35:27;;;;;;;0.63;0.63;;;;;;;;;;5074962;28;20401;-69
2022/06/05 13:37:57;;;;;;;1.90;0.83;;;;;;;;;;5074813;28;20398;-68
2022/06/05 13:40:36;;;;;;;1.07;0.80;;;;;;;;;;5074738;28;20426;-68
2022/06/05 13:43:03;;;;;;;0.83;0.83;;;;;;;;;;5074733;28;20394;-68
2022/06/05 13:45:47;;;;;;;0.83;0.83;;;;;;;;;;5074706;28;20402;-68
2022/06/05 13:48:22;;;;;;;4.47;1.30;;;;;;;;;;5074685;28;20451;-68
2022/06/05 13:50:48;;;;;;;0.97;0.80;;;;;;;;;;5074523;28;20401;-67
2022/06/05 13:53:20;;;;;;;0.90;0.90;;;;;;;;;;5074487;28;20468;-67
2022/06/05 13:55:51;;;;;;;0.80;0.80;;;;;;;;;;5074480;28;20294;-69
2022/06/05 13:58:16;;;;;;;1.10;1.00;;;;;;;;;;5056513;28;20917;-69
2022/06/05 14:00:49;;;;;;;0.80;0.80;;;;;;;;;;5074367;28;20497;-69
2022/06/05 14:03:17;;;;;;;1.33;0.73;;;;;;;;;;5074330;28;20160;-68
2022/06/05 14:05:52;;;;;;;3.03;1.10;;;;;;;;;;5074306;28;20414;-68
2022/06/05 14:08:26;;;;;;;2.10;1.23;;;;;;;;;;5074510;28;20417;-68
2022/06/05 14:10:58;;;;;;;1.10;1.00;;;;;;;;;;5074160;28;20406;-68
2022/06/05 14:13:24;;;;;;;2.50;1.20;;;;;;;;;;5074032;28;20971;-68
2022/06/05 14:15:53;;;;;;;0.93;0.93;;;;;;;;;;5073866;28;20399;-67
2022/06/05 14:18:21;;;;;;;1.43;1.10;;;;;;;;;;5074027;28;20603;-69
2022/06/05 14:20:49;;;;;;;2.33;1.40;;;;;;;;;;5074027;28;20881;-68
2022/06/05 14:23:20;;;;;;;1.17;0.87;;;;;;;;;;5055954;28;20457;-68
2022/06/05 14:25:46;;;;;;;1.97;1.00;;;;;;;;;;5073923;28;20411;-69
2022/06/05 14:28:14;;;;;;;1.57;1.00;;;;;;;;;;5074106;28;20449;-68
2022/06/05 14:30:56;;;;;;;1.33;1.20;;;;;;;;;;5073632;28;20477;-69
2022/06/05 14:33:27;;;;;;;2.03;1.23;;;;;;;;;;5073699;28;20508;-68
2022/06/05 14:35:53;;;;;;;1.17;1.10;;;;;;;;;;5073807;28;20468;-68
2022/06/05 14:38:19;;;;;;;1.07;0.90;;;;;;;;;;5073842;28;20408;-68
2022/06/05 14:40:50;;;;;;;1.47;0.80;;;;;;;;;;5073682;28;20391;-68
2022/06/05 14:43:26;;;;;;;2.73;0.80;;;;;;;;;;5073720;28;20385;-68
2022/06/05 14:45:59;;;;;;;1.23;1.20;;;;;;;;;;5073662;28;20398;-68
2022/06/05 14:48:40;;;;;;;1.37;0.93;;;;;;;;;;5073783;28;20868;-68
2022/06/05 14:51:27;;;;;;;13.23;1.90;;;;;;;;;;5073623;28;20407;-67
2022/06/05 14:53:53;;;;;;;8.73;2.40;;;;;;;;;;5073564;28;20468;-66
2022/06/05 14:59:42;;;;;;;2.60;2.27;;;;;;;;;;5058204;28;20422;-67
2022/06/05 15:02:18;;;;;;;2.53;1.70;;;;;;;;;;5073395;28;20401;-66
2022/06/05 15:04:51;;;;;;;3.07;1.73;;;;;;;;;;5073314;28;20397;-65
2022/06/05 15:07:24;;;;;;;2.50;2.23;;;;;;;;;;5073339;28;20402;-66